UNTT/TOF METAR and TAF weather

Enter ICAO airport designator
Station Type Date Time Source
UNTT METAR 2020/01/23 15:00 UTC NOAA

UNTT 231500Z 20009MPS 3500 -SHSN BLSN SCT016CB BKN033 M04/M06 Q1007 R21/490137 NOSIG RMK QFE741


Station Type Date Time Source
UNTT Decoded METAR 2020/01/23 15:00 UTC NOAA

Station name not available
Jan 23, 2020 - 10:00 AM EST / 2020.01.23 1500 UTC
Wind: from the SSW (200 degrees) at 20 MPH (17 KT):0
Visibility: 2 mile(s):0
Sky conditions: mostly cloudy
Weather: light snow showers; blowing snow; Cumulonimbus clouds observed
Temperature: 24 F (-4 C)
Windchill: 8 F (-13 C):1
Dew Point: 21 F (-6 C)
Relative Humidity: 85%
Pressure (altimeter): 29.74 in. Hg (1007 hPa)
ob: UNTT 231500Z 20009MPS 3500 -SHSN BLSN SCT016CB BKN033 M04/M06 Q1007 R21/490137 NOSIG RMK QFE741
cycle: 15

Station Type Date Time Source
UNTT TAF UTC NOAA

Error!

Example: see airport list